createdAt,value
2022-10-06T00:02:22.068Z,12.58
2022-10-06T00:04:48.682Z,12.54
2022-10-06T00:07:16.140Z,12.52
2022-10-06T00:09:42.775Z,12.50
2022-10-06T00:12:09.824Z,12.53
2022-10-06T00:14:36.889Z,12.57
2022-10-06T00:17:03.994Z,12.60
2022-10-06T00:19:30.502Z,12.63
2022-10-06T00:21:57.009Z,12.62
2022-10-06T00:24:23.488Z,12.61
2022-10-06T00:26:49.919Z,12.59
2022-10-06T00:29:16.388Z,12.60
2022-10-06T00:31:43.734Z,12.57
2022-10-06T00:34:10.281Z,12.53
2022-10-06T00:36:37.293Z,12.51
2022-10-06T00:39:03.863Z,12.47
2022-10-06T00:41:30.426Z,12.42
2022-10-06T00:43:58.702Z,12.36
2022-10-06T00:46:45.238Z,12.27
2022-10-06T00:49:12.133Z,12.24
2022-10-06T00:51:42.290Z,12.21
2022-10-06T00:54:09.153Z,12.18
2022-10-06T00:56:38.229Z,12.16
2022-10-06T00:59:08.696Z,12.13
2022-10-06T01:01:36.506Z,12.09
2022-10-06T01:04:09.508Z,12.02
2022-10-06T01:06:49.887Z,11.98
2022-10-06T01:09:18.361Z,11.95
2022-10-06T01:11:48.165Z,11.91
2022-10-06T01:14:15.094Z,11.90
2022-10-06T01:16:45.823Z,11.88
2022-10-06T01:19:31.802Z,11.88
2022-10-06T01:22:01.859Z,11.84
2022-10-06T01:24:28.663Z,11.79
2022-10-06T01:26:57.144Z,11.77
2022-10-06T01:29:24.725Z,11.73
2022-10-06T01:31:51.334Z,11.66
2022-10-06T01:34:17.869Z,11.62
2022-10-06T01:36:44.388Z,11.60
2022-10-06T01:39:10.883Z,11.54
2022-10-06T01:41:37.348Z,11.48
2022-10-06T01:44:04.060Z,11.46
2022-10-06T01:46:30.936Z,11.44
2022-10-06T01:48:57.548Z,11.42
2022-10-06T01:51:24.094Z,11.41
2022-10-06T01:53:50.597Z,11.35
2022-10-06T01:56:17.260Z,11.31
2022-10-06T01:58:43.773Z,11.28
2022-10-06T02:01:10.425Z,11.25
2022-10-06T02:03:38.910Z,11.21
2022-10-06T02:06:06.502Z,11.18
2022-10-06T02:08:33.296Z,11.16
2022-10-06T02:11:05.329Z,11.11
2022-10-06T02:13:32.101Z,11.08
2022-10-06T02:15:58.615Z,11.05
2022-10-06T02:18:25.652Z,11.00
2022-10-06T02:20:52.500Z,10.99
2022-10-06T02:23:18.992Z,10.97
2022-10-06T02:25:45.545Z,10.94
2022-10-06T02:28:12.093Z,10.91
2022-10-06T02:30:38.650Z,10.86
2022-10-06T02:33:05.244Z,10.83
2022-10-06T02:35:31.737Z,10.79
2022-10-06T02:37:58.342Z,10.75
2022-10-06T02:40:24.884Z,10.75
2022-10-06T02:42:51.394Z,10.70
2022-10-06T02:45:17.944Z,10.67
2022-10-06T02:47:44.492Z,10.66
2022-10-06T02:50:10.991Z,10.61
2022-10-06T02:52:41.198Z,10.59
2022-10-06T02:55:08.735Z,10.56
2022-10-06T02:57:35.200Z,10.53
2022-10-06T03:00:01.733Z,10.52
2022-10-06T03:02:30.832Z,10.49
2022-10-06T03:04:57.434Z,10.47
2022-10-06T03:07:24.130Z,10.45
2022-10-06T03:09:50.654Z,10.40
2022-10-06T03:12:17.161Z,10.43
2022-10-06T03:14:43.656Z,10.40
2022-10-06T03:17:10.116Z,10.35
2022-10-06T03:19:37.442Z,10.32
2022-10-06T03:22:05.387Z,10.29
2022-10-06T03:24:32.516Z,10.27
2022-10-06T03:26:59.239Z,10.26
2022-10-06T03:29:25.860Z,10.23
2022-10-06T03:31:52.445Z,10.21
2022-10-06T03:34:19.112Z,10.16
2022-10-06T03:36:45.600Z,10.14
2022-10-06T03:39:12.030Z,10.13
2022-10-06T03:41:38.978Z,10.10
2022-10-06T03:44:06.170Z,10.06
2022-10-06T03:46:35.155Z,10.03
2022-10-06T03:49:01.853Z,10.02
2022-10-06T03:51:39.875Z,10.00
2022-10-06T03:54:10.495Z,9.97
2022-10-06T03:56:39.639Z,9.94
2022-10-06T03:59:08.854Z,9.93
2022-10-06T04:01:38.319Z,9.89
2022-10-06T04:04:06.009Z,9.89
2022-10-06T04:06:35.169Z,9.89
2022-10-06T04:09:04.609Z,9.85
2022-10-06T04:11:34.422Z,9.81
2022-10-06T04:14:03.520Z,9.80
2022-10-06T04:16:32.663Z,9.78
2022-10-06T04:19:01.208Z,9.76
2022-10-06T04:21:29.670Z,9.77
2022-10-06T04:23:57.623Z,9.75
2022-10-06T04:26:30.641Z,9.75
2022-10-06T04:28:57.637Z,9.74
2022-10-06T04:31:26.810Z,9.73
2022-10-06T04:33:55.267Z,9.70
2022-10-06T04:36:27.162Z,9.68
2022-10-06T04:38:58.950Z,9.67
2022-10-06T04:41:31.961Z,9.66
2022-10-06T04:43:59.410Z,9.64
2022-10-06T04:46:44.205Z,9.62
2022-10-06T04:49:17.876Z,9.60
2022-10-06T04:51:46.389Z,9.56
2022-10-06T04:54:13.048Z,9.56
2022-10-06T04:56:39.580Z,9.52
2022-10-06T04:59:06.104Z,9.49
2022-10-06T05:01:34.905Z,9.47
2022-10-06T05:04:03.122Z,9.44
2022-10-06T05:06:32.231Z,9.42
2022-10-06T05:09:01.225Z,9.41
2022-10-06T05:11:28.227Z,9.38
2022-10-06T05:13:56.885Z,9.34
2022-10-06T05:16:25.199Z,9.31
2022-10-06T05:18:51.961Z,9.29
2022-10-06T05:21:27.782Z,9.29
2022-10-06T05:23:54.362Z,9.25
2022-10-06T05:26:23.496Z,9.23
2022-10-06T05:28:50.331Z,9.22
2022-10-06T05:31:18.403Z,9.21
2022-10-06T05:33:45.276Z,9.16
2022-10-06T05:36:17.631Z,9.15
2022-10-06T05:38:45.282Z,9.19
2022-10-06T05:41:14.438Z,9.15
2022-10-06T05:43:42.185Z,9.10
2022-10-06T05:46:17.285Z,9.09
2022-10-06T05:48:48.119Z,9.09
2022-10-06T05:51:15.297Z,9.07
2022-10-06T05:53:43.084Z,9.07
2022-10-06T05:56:17.457Z,9.05
2022-10-06T05:58:45.962Z,9.06
2022-10-06T06:01:19.628Z,9.06
2022-10-06T06:03:49.840Z,9.06
2022-10-06T06:06:22.239Z,9.08
2022-10-06T06:08:53.312Z,9.10
2022-10-06T06:11:25.350Z,9.10
2022-10-06T06:14:44.236Z,9.13
2022-10-06T06:17:11.548Z,9.15
2022-10-06T06:19:38.022Z,9.16
2022-10-06T06:22:04.486Z,9.17
2022-10-06T06:24:30.966Z,9.16
2022-10-06T06:26:57.443Z,9.20
2022-10-06T06:29:24.064Z,9.23
2022-10-06T06:31:51.075Z,9.24
2022-10-06T06:34:17.639Z,9.27
2022-10-06T06:36:46.963Z,9.27
2022-10-06T06:39:15.173Z,9.30
2022-10-06T06:41:45.299Z,9.33
2022-10-06T06:44:12.419Z,9.36
2022-10-06T06:46:40.342Z,9.38
2022-10-06T06:49:07.407Z,9.42
2022-10-06T06:51:35.827Z,9.45
2022-10-06T06:54:05.123Z,9.48
2022-10-06T06:56:34.855Z,9.52
2022-10-06T06:59:10.472Z,9.55
2022-10-06T07:01:38.974Z,9.58
2022-10-06T07:04:06.264Z,9.63
2022-10-06T07:06:32.844Z,9.65
2022-10-06T07:09:00.545Z,9.70
2022-10-06T07:11:30.366Z,9.74
2022-10-06T07:14:01.252Z,9.77
2022-10-06T07:16:48.403Z,9.81
2022-10-06T07:19:34.421Z,9.87
2022-10-06T07:22:23.831Z,9.91
2022-10-06T07:25:08.336Z,9.97
2022-10-06T07:27:46.508Z,10.04
2022-10-06T07:30:19.585Z,10.10
2022-10-06T07:32:50.960Z,10.16
2022-10-06T07:35:20.345Z,10.23
2022-10-06T07:37:47.825Z,10.30
2022-10-06T07:40:14.975Z,10.36
2022-10-06T07:42:54.075Z,10.43
2022-10-06T07:45:45.135Z,10.51
2022-10-06T07:48:14.806Z,10.59
2022-10-06T07:50:42.881Z,10.67
2022-10-06T07:53:09.530Z,10.75
2022-10-06T07:55:39.783Z,10.86
2022-10-06T07:58:17.847Z,10.95
2022-10-06T08:00:46.131Z,11.00
2022-10-06T08:03:18.068Z,11.07
2022-10-06T08:05:50.183Z,11.15
2022-10-06T08:08:17.564Z,11.19
2022-10-06T08:10:51.687Z,11.25
2022-10-06T08:13:18.249Z,11.29
2022-10-06T08:15:44.770Z,11.35
2022-10-06T08:18:27.243Z,11.42
2022-10-06T08:20:58.753Z,11.47
2022-10-06T08:23:25.942Z,11.55
2022-10-06T08:25:54.349Z,11.63
2022-10-06T08:28:22.269Z,11.69
2022-10-06T08:30:51.428Z,11.77
2022-10-06T08:33:21.268Z,11.84
2022-10-06T08:35:48.165Z,11.93
2022-10-06T08:38:14.751Z,11.98
2022-10-06T08:40:43.847Z,12.07
2022-10-06T08:43:18.975Z,12.10
2022-10-06T08:45:47.604Z,12.13
2022-10-06T08:48:19.854Z,12.15
2022-10-06T08:51:05.044Z,12.21
2022-10-06T08:53:46.995Z,12.28
2022-10-06T08:56:19.662Z,12.38
2022-10-06T08:58:52.688Z,12.41
2022-10-06T09:01:26.630Z,12.46
2022-10-06T09:03:58.392Z,12.47
2022-10-06T09:06:43.436Z,12.55
2022-10-06T09:09:25.255Z,12.64
2022-10-06T09:11:54.710Z,12.66
2022-10-06T09:14:42.419Z,12.71
2022-10-06T09:17:18.990Z,12.76
2022-10-06T09:19:51.333Z,12.78
2022-10-06T09:22:23.304Z,12.80
2022-10-06T09:24:57.420Z,12.82
2022-10-06T09:27:33.758Z,12.94
2022-10-06T09:30:01.590Z,12.95
2022-10-06T09:32:30.727Z,13.01
2022-10-06T09:35:02.678Z,13.12
2022-10-06T09:37:29.179Z,13.17
2022-10-06T09:39:56.059Z,13.26
2022-10-06T09:42:29.526Z,13.26
2022-10-06T09:45:04.002Z,13.36
2022-10-06T09:47:37.056Z,13.45
2022-10-06T09:50:12.655Z,13.64
2022-10-06T09:52:40.806Z,13.80
2022-10-06T09:55:14.963Z,13.83
2022-10-06T09:58:25.850Z,13.94
2022-10-06T10:00:55.933Z,13.89
2022-10-06T10:03:26.100Z,13.90
2022-10-06T10:05:54.955Z,13.99
2022-10-06T10:08:24.596Z,14.00
2022-10-06T10:11:32.139Z,13.98
2022-10-06T10:13:59.802Z,13.95
2022-10-06T10:16:34.513Z,13.97
2022-10-06T10:19:03.240Z,13.94
2022-10-06T10:21:33.618Z,14.11
2022-10-06T10:24:03.286Z,14.20
2022-10-06T10:26:57.137Z,14.42
2022-10-06T10:29:33.037Z,14.60
2022-10-06T10:32:15.411Z,14.69
2022-10-06T10:34:42.781Z,14.95
2022-10-06T10:37:14.017Z,15.21
2022-10-06T10:39:50.112Z,15.39
2022-10-06T10:42:39.712Z,15.46
2022-10-06T10:45:34.428Z,15.53
2022-10-06T10:48:05.647Z,15.62
2022-10-06T10:50:39.226Z,15.59
2022-10-06T10:53:22.587Z,15.17
2022-10-06T10:55:51.071Z,14.97
2022-10-06T10:58:33.170Z,14.87
2022-10-06T11:01:29.634Z,15.01
2022-10-06T11:03:58.379Z,14.99
2022-10-06T11:06:55.671Z,15.07
2022-10-06T11:09:29.018Z,15.24
2022-10-06T11:12:34.303Z,15.30
2022-10-06T11:15:17.041Z,15.41
2022-10-06T11:17:50.324Z,15.45
2022-10-06T11:20:44.118Z,15.55
2022-10-06T11:23:22.626Z,15.59
2022-10-06T11:26:09.799Z,15.71
2022-10-06T11:28:55.629Z,15.84
2022-10-06T11:31:42.402Z,15.85
2022-10-06T11:34:10.635Z,15.86
2022-10-06T11:36:47.970Z,15.92
2022-10-06T11:39:22.513Z,15.83
2022-10-06T11:41:57.128Z,15.98
2022-10-06T11:44:31.465Z,16.10
2022-10-06T11:47:02.558Z,16.24
2022-10-06T11:49:28.963Z,16.35
2022-10-06T11:52:15.646Z,16.47
2022-10-06T11:54:48.318Z,16.47
2022-10-06T11:57:30.206Z,16.51
2022-10-06T12:00:17.768Z,16.50
2022-10-06T12:02:46.964Z,16.51
2022-10-06T12:05:45.864Z,16.54
2022-10-06T12:08:00.632Z,16.62
2022-10-06T12:10:30.163Z,16.72
2022-10-06T12:14:26.278Z,16.75
2022-10-06T12:19:54.103Z,17.00
2022-10-06T12:22:37.427Z,17.14
2022-10-06T12:25:16.410Z,17.19
2022-10-06T12:28:18.461Z,17.21
2022-10-06T12:31:22.887Z,17.49
2022-10-06T12:33:50.477Z,17.49
2022-10-06T12:36:26.844Z,17.53
2022-10-06T12:39:20.384Z,17.48
2022-10-06T12:42:00.833Z,17.48
2022-10-06T12:44:37.484Z,17.23
2022-10-06T12:47:10.199Z,17.24
2022-10-06T12:49:46.081Z,17.07
2022-10-06T12:52:46.059Z,17.01
2022-10-06T12:55:21.372Z,17.02
2022-10-06T12:57:52.366Z,17.15
2022-10-06T13:02:54.381Z,16.76
2022-10-06T13:05:20.991Z,16.89
2022-10-06T13:08:02.711Z,17.05
2022-10-06T13:10:30.698Z,17.27
2022-10-06T13:12:58.011Z,17.36
2022-10-06T13:15:29.574Z,17.33
2022-10-06T13:18:08.176Z,17.34
2022-10-06T13:20:36.611Z,17.38
2022-10-06T13:23:23.397Z,17.42
2022-10-06T13:26:02.112Z,17.44
2022-10-06T13:28:43.880Z,17.40
2022-10-06T13:31:34.908Z,17.44
2022-10-06T13:34:05.789Z,17.47
2022-10-06T13:36:41.403Z,17.49
2022-10-06T13:39:18.006Z,17.50
2022-10-06T13:41:51.707Z,17.49
2022-10-06T13:44:18.775Z,17.48
2022-10-06T13:46:54.208Z,17.52
2022-10-06T13:49:40.783Z,17.62
2022-10-06T13:52:16.484Z,17.66
2022-10-06T13:54:58.056Z,17.67
2022-10-06T13:58:08.506Z,17.36
2022-10-06T14:00:58.026Z,17.34
2022-10-06T14:06:19.012Z,17.53
2022-10-06T14:08:52.452Z,17.52
2022-10-06T14:11:28.098Z,17.45
2022-10-06T14:13:56.325Z,17.39
2022-10-06T14:16:27.776Z,17.37
2022-10-06T14:19:05.496Z,17.42
2022-10-06T14:21:31.980Z,17.39
2022-10-06T14:23:59.974Z,17.37
2022-10-06T14:26:31.098Z,17.35
2022-10-06T14:28:58.947Z,17.28
2022-10-06T14:31:27.760Z,17.19
2022-10-06T14:33:56.953Z,17.23
2022-10-06T14:36:25.765Z,17.17
2022-10-06T14:38:52.292Z,17.16
2022-10-06T14:41:19.905Z,17.09
2022-10-06T14:43:47.688Z,17.10
2022-10-06T14:46:15.569Z,17.08
2022-10-06T14:48:42.204Z,17.05
2022-10-06T14:51:09.634Z,16.87
2022-10-06T14:53:39.121Z,16.86
2022-10-06T14:56:09.114Z,16.84
2022-10-06T14:58:40.220Z,16.85
2022-10-06T15:01:07.747Z,16.80
2022-10-06T15:03:36.983Z,16.81
2022-10-06T15:06:27.543Z,16.81
2022-10-06T15:08:56.535Z,16.73
2022-10-06T15:11:25.562Z,16.67
2022-10-06T15:13:54.872Z,16.61
2022-10-06T15:16:24.634Z,16.58
2022-10-06T15:18:52.153Z,16.53
2022-10-06T15:21:19.583Z,16.48
2022-10-06T15:23:48.037Z,16.42
2022-10-06T15:26:33.131Z,16.41
2022-10-06T15:29:05.829Z,16.39
2022-10-06T15:31:38.288Z,16.36
2022-10-06T15:34:07.270Z,16.33
2022-10-06T15:36:39.469Z,16.27
2022-10-06T15:39:09.013Z,16.21
2022-10-06T15:41:36.844Z,16.15
2022-10-06T15:44:05.047Z,16.09
2022-10-06T15:46:37.206Z,16.06
2022-10-06T15:49:06.607Z,15.99
2022-10-06T15:51:38.425Z,15.92
2022-10-06T15:54:05.489Z,15.90
2022-10-06T15:56:32.135Z,15.87
2022-10-06T15:58:59.663Z,15.82
2022-10-06T16:01:28.176Z,15.77
2022-10-06T16:03:54.863Z,15.69
2022-10-06T16:06:30.262Z,15.63
2022-10-06T16:08:56.792Z,15.55
2022-10-06T16:11:23.324Z,15.49
2022-10-06T16:13:51.775Z,15.45
2022-10-06T16:16:18.303Z,15.38
2022-10-06T16:18:44.865Z,15.30
2022-10-06T16:21:11.381Z,15.27
2022-10-06T16:23:37.829Z,15.17
2022-10-06T16:26:04.517Z,15.12
2022-10-06T16:28:31.053Z,15.05
2022-10-06T16:30:57.697Z,14.93
2022-10-06T16:33:24.275Z,14.89
2022-10-06T16:35:58.578Z,14.82
2022-10-06T16:38:25.587Z,14.74
2022-10-06T16:41:01.715Z,14.67
2022-10-06T16:43:32.249Z,14.61
2022-10-06T16:46:02.285Z,14.53
2022-10-06T16:48:34.793Z,14.45
2022-10-06T16:51:03.172Z,14.37
2022-10-06T16:53:38.907Z,14.31
2022-10-06T16:56:07.254Z,14.24
2022-10-06T16:58:39.144Z,14.19
2022-10-06T17:01:06.279Z,14.12
2022-10-06T17:03:33.270Z,13.98
2022-10-06T17:06:16.976Z,13.89
2022-10-06T17:08:44.784Z,13.76
2022-10-06T17:11:15.866Z,13.72
2022-10-06T17:13:47.412Z,13.60
2022-10-06T17:16:17.337Z,13.51
2022-10-06T17:18:47.714Z,13.41
2022-10-06T17:21:39.576Z,13.36
2022-10-06T17:24:03.210Z,13.22
2022-10-06T17:26:32.372Z,13.14
2022-10-06T17:29:02.133Z,13.02
2022-10-06T17:31:35.762Z,12.89
2022-10-06T17:34:04.899Z,12.85
2022-10-06T17:36:31.650Z,12.85
2022-10-06T17:39:03.828Z,12.77
2022-10-06T17:41:33.357Z,12.69
2022-10-06T17:44:06.364Z,12.66
2022-10-06T17:46:37.579Z,12.66
2022-10-06T17:49:07.566Z,12.66
2022-10-06T17:51:35.901Z,12.63
2022-10-06T17:54:05.370Z,12.54
2022-10-06T17:56:34.567Z,12.48
2022-10-06T17:59:05.309Z,12.43
2022-10-06T18:01:33.386Z,12.36
2022-10-06T18:04:03.336Z,12.28
2022-10-06T18:06:32.555Z,12.23
2022-10-06T18:09:00.924Z,12.18
2022-10-06T18:11:43.683Z,12.19
2022-10-06T18:14:17.372Z,12.11
2022-10-06T18:16:58.828Z,12.04
2022-10-06T18:19:33.813Z,12.00
2022-10-06T18:22:03.398Z,12.02
2022-10-06T18:24:31.374Z,11.99
2022-10-06T18:27:00.082Z,11.96
2022-10-06T18:29:33.632Z,11.91
2022-10-06T18:33:44.836Z,11.96
2022-10-06T18:37:34.854Z,11.92
2022-10-06T18:40:05.446Z,11.87
2022-10-06T18:42:31.895Z,11.84
2022-10-06T18:45:16.762Z,11.81
2022-10-06T18:48:01.731Z,11.74
2022-10-06T18:50:28.421Z,11.67
2022-10-06T18:52:56.870Z,11.65
2022-10-06T18:55:23.555Z,11.62
2022-10-06T18:57:50.586Z,11.59
2022-10-06T19:00:17.472Z,11.55
2022-10-06T19:02:48.260Z,11.52
2022-10-06T19:05:17.262Z,11.52
2022-10-06T19:07:44.016Z,11.49
2022-10-06T19:10:11.077Z,11.44
2022-10-06T19:12:37.543Z,11.41
2022-10-06T19:15:04.294Z,11.38
2022-10-06T19:17:30.732Z,11.35
2022-10-06T19:19:57.218Z,11.33
2022-10-06T19:22:26.485Z,11.31
2022-10-06T19:24:53.031Z,11.27
2022-10-06T19:27:24.995Z,11.20
2022-10-06T19:29:54.409Z,11.13
2022-10-06T19:32:26.274Z,11.12
2022-10-06T19:34:54.913Z,11.11
2022-10-06T19:37:21.416Z,11.06
2022-10-06T19:39:50.139Z,11.01
2022-10-06T19:42:37.336Z,10.98
2022-10-06T19:45:06.310Z,10.95
2022-10-06T19:47:32.878Z,10.93
2022-10-06T19:50:03.720Z,10.87
2022-10-06T19:52:32.757Z,10.85
2022-10-06T19:55:00.725Z,10.84
2022-10-06T19:57:29.154Z,10.78
2022-10-06T19:59:55.504Z,10.74
2022-10-06T20:02:23.200Z,10.70
2022-10-06T20:04:50.504Z,10.68
2022-10-06T20:07:17.271Z,10.65
2022-10-06T20:09:44.105Z,10.61
2022-10-06T20:12:10.569Z,10.57
2022-10-06T20:14:37.113Z,10.53
2022-10-06T20:17:03.681Z,10.53
2022-10-06T20:19:31.005Z,10.49
2022-10-06T20:21:57.850Z,10.45
2022-10-06T20:24:24.798Z,10.41
2022-10-06T20:26:52.942Z,10.38
2022-10-06T20:29:26.483Z,10.34
2022-10-06T20:31:55.244Z,10.31
2022-10-06T20:34:31.585Z,10.21
2022-10-06T20:37:00.062Z,10.19
2022-10-06T20:39:45.225Z,10.18
2022-10-06T20:42:15.257Z,10.15
2022-10-06T20:44:43.028Z,10.12
2022-10-06T20:47:11.342Z,10.06
2022-10-06T20:49:37.732Z,10.04
2022-10-06T20:52:05.539Z,10.01
2022-10-06T20:54:35.117Z,9.99
2022-10-06T20:57:04.134Z,9.97
2022-10-06T20:59:31.288Z,9.95
2022-10-06T21:02:00.885Z,9.89
2022-10-06T21:04:27.574Z,9.88
2022-10-06T21:06:54.146Z,9.86
2022-10-06T21:09:20.574Z,9.79
2022-10-06T21:11:47.673Z,9.77
2022-10-06T21:14:14.993Z,9.73
2022-10-06T21:16:43.508Z,9.69
2022-10-06T21:19:14.123Z,9.67
2022-10-06T21:21:42.327Z,9.66
2022-10-06T21:24:09.064Z,9.63
2022-10-06T21:26:36.815Z,9.61
2022-10-06T21:29:03.356Z,9.58
2022-10-06T21:31:30.393Z,9.52
2022-10-06T21:33:56.988Z,9.53
2022-10-06T21:36:25.986Z,9.50
2022-10-06T21:38:55.001Z,9.48
2022-10-06T21:41:30.345Z,9.46
2022-10-06T21:44:04.345Z,9.44
2022-10-06T21:46:36.521Z,9.46
2022-10-06T21:49:06.589Z,9.46
2022-10-06T21:51:33.783Z,9.42
2022-10-06T21:54:01.201Z,9.42
2022-10-06T21:56:30.128Z,9.38
2022-10-06T21:58:57.417Z,9.39
2022-10-06T22:01:33.183Z,9.36
2022-10-06T22:04:00.398Z,9.34
2022-10-06T22:06:29.757Z,9.31
2022-10-06T22:08:57.616Z,9.29
2022-10-06T22:11:27.168Z,9.27
2022-10-06T22:13:56.702Z,9.26
2022-10-06T22:16:24.927Z,9.24
2022-10-06T22:18:52.007Z,9.21
2022-10-06T22:21:27.297Z,9.16
2022-10-06T22:24:02.609Z,9.13
2022-10-06T22:26:30.548Z,9.14
2022-10-06T22:28:58.174Z,9.18
2022-10-06T22:31:26.764Z,9.18
2022-10-06T22:34:00.888Z,9.19
2022-10-06T22:36:28.429Z,9.16
2022-10-06T22:38:55.811Z,9.14
2022-10-06T22:41:22.687Z,9.10
2022-10-06T22:43:52.235Z,9.07
2022-10-06T22:46:18.756Z,9.03
2022-10-06T22:48:45.257Z,8.98
2022-10-06T22:51:11.701Z,8.96
2022-10-06T22:53:38.103Z,8.90
2022-10-06T22:56:04.585Z,8.86
2022-10-06T22:58:31.120Z,8.85
2022-10-06T23:00:57.785Z,8.84
2022-10-06T23:03:24.704Z,8.84
2022-10-06T23:05:59.924Z,8.82
2022-10-06T23:08:30.180Z,8.78
2022-10-06T23:11:10.163Z,8.80
2022-10-06T23:13:37.133Z,8.81
2022-10-06T23:16:07.827Z,8.81
2022-10-06T23:18:37.121Z,8.79
2022-10-06T23:21:09.027Z,8.79
2022-10-06T23:23:35.574Z,8.75
2022-10-06T23:26:11.757Z,8.73
2022-10-06T23:28:38.922Z,8.67
2022-10-06T23:31:08.037Z,8.65
2022-10-06T23:33:35.548Z,8.61
2022-10-06T23:36:05.400Z,8.62
2022-10-06T23:38:31.973Z,8.63
2022-10-06T23:40:58.526Z,8.60
2022-10-06T23:43:24.999Z,8.60
2022-10-06T23:45:51.522Z,8.59
2022-10-06T23:48:18.274Z,8.58
2022-10-06T23:50:58.640Z,8.57
2022-10-06T23:53:25.136Z,8.55
2022-10-06T23:55:51.655Z,8.56
2022-10-06T23:58:19.111Z,8.51
